Time;durP1;ratioP1;P1;durP2;ratioP2;P2;SDS_P1;SDS_P2;PMS_P1;PMS_P2;Temp;Humidity;BMP_temperature;BMP_pressure;BME280_temperature;BME280_humidity;BME280_pressure;Samples;Min_cycle;Max_cycle;Signal;HPM_P1;HPM_P2
2023/10/22 00:01:04;;;;;;;9.83;9.53;;;11.40;99.90;;;;;;5109573;28;20233;-82
2023/10/22 00:03:32;;;;;;;9.70;9.40;;;11.40;99.90;;;;;;5109465;28;20229;-81
2023/10/22 00:05:59;;;;;;;9.93;9.63;;;11.40;99.90;;;;;;5114193;28;20217;-82
2023/10/22 00:08:26;;;;;;;9.90;9.60;;;11.50;99.90;;;;;;5113382;28;20241;-81
2023/10/22 00:10:53;;;;;;;9.80;9.50;;;11.50;99.90;;;;;;5113066;28;20316;-80
2023/10/22 00:13:20;;;;;;;10.00;9.70;;;11.50;99.90;;;;;;5111600;28;20291;-81
2023/10/22 00:15:48;;;;;;;9.90;9.60;;;11.40;99.90;;;;;;5113022;28;20221;-82
2023/10/22 00:18:16;;;;;;;9.97;9.67;;;11.40;99.90;;;;;;5112855;28;20329;-80
2023/10/22 00:20:43;;;;;;;9.93;9.63;;;11.50;99.90;;;;;;5113263;28;20237;-81
2023/10/22 00:23:10;;;;;;;9.93;9.63;;;11.50;99.90;;;;;;5113420;28;20217;-81
2023/10/22 00:25:37;;;;;;;10.27;9.97;;;11.50;99.90;;;;;;5112397;28;20225;-82
2023/10/22 00:28:07;;;;;;;9.70;9.40;;;11.50;99.90;;;;;;5111725;28;20241;-82
2023/10/22 00:30:36;;;;;;;9.90;9.60;;;11.50;99.90;;;;;;5111703;28;20314;-80
2023/10/22 00:33:05;;;;;;;9.90;9.60;;;11.60;99.90;;;;;;5112046;28;20222;-81
2023/10/22 00:35:32;;;;;;;9.93;9.63;;;11.60;99.90;;;;;;5112082;28;20240;-81
2023/10/22 00:37:59;;;;;;;9.80;9.50;;;11.70;99.90;;;;;;5111925;28;20335;-81
2023/10/22 00:40:26;;;;;;;9.97;9.67;;;11.70;99.90;;;;;;5113778;28;20230;-81
2023/10/22 00:42:55;;;;;;;9.73;9.43;;;11.80;99.90;;;;;;5111704;28;20221;-81
2023/10/22 00:45:22;;;;;;;9.80;9.50;;;11.80;99.90;;;;;;5113204;28;20276;-81
2023/10/22 00:47:50;;;;;;;9.80;9.50;;;11.80;99.90;;;;;;5112624;28;20238;-82
2023/10/22 00:50:19;;;;;;;9.87;9.57;;;11.80;99.90;;;;;;5112842;28;20304;-80
2023/10/22 00:52:46;;;;;;;9.90;9.60;;;11.70;99.90;;;;;;5112960;28;20281;-80
2023/10/22 00:55:14;;;;;;;10.10;9.80;;;11.70;99.90;;;;;;5112508;28;20244;-80
2023/10/22 00:57:42;;;;;;;9.93;9.63;;;11.60;99.90;;;;;;5112793;28;20236;-81
2023/10/22 01:00:11;;;;;;;10.00;9.70;;;11.60;99.90;;;;;;5113778;28;20289;-81
2023/10/22 01:02:38;;;;;;;9.80;9.50;;;11.60;99.90;;;;;;5114832;28;20318;-82
2023/10/22 01:05:08;;;;;;;9.87;9.57;;;11.60;99.90;;;;;;5114635;28;20325;-82
2023/10/22 01:07:37;;;;;;;9.80;9.50;;;11.50;99.90;;;;;;5113183;28;20239;-81
2023/10/22 01:10:05;;;;;;;9.80;9.50;;;11.50;99.90;;;;;;5113097;28;20253;-81
2023/10/22 01:12:38;;;;;;;9.73;9.43;;;11.50;99.90;;;;;;5113275;28;20339;-82
2023/10/22 01:15:07;;;;;;;9.60;9.30;;;11.60;99.90;;;;;;5114019;28;20240;-81
2023/10/22 01:17:34;;;;;;;9.90;9.60;;;11.60;99.90;;;;;;5112473;28;20237;-81
2023/10/22 01:20:01;;;;;;;9.70;9.40;;;11.60;99.90;;;;;;5113289;28;20226;-82
2023/10/22 01:22:28;;;;;;;9.77;9.47;;;11.50;99.90;;;;;;5114021;28;20317;-81
2023/10/22 01:24:57;;;;;;;9.83;9.53;;;11.50;99.90;;;;;;5112492;28;20240;-82
2023/10/22 01:27:24;;;;;;;9.80;9.50;;;11.50;99.90;;;;;;5111668;28;20237;-81
2023/10/22 01:29:51;;;;;;;9.80;9.50;;;11.50;99.90;;;;;;5115716;28;20267;-81
2023/10/22 01:32:18;;;;;;;9.80;9.50;;;11.40;99.90;;;;;;5113693;28;20218;-81
2023/10/22 01:34:45;;;;;;;9.77;9.47;;;11.40;99.90;;;;;;5112826;28;20225;-81
2023/10/22 01:37:13;;;;;;;9.90;9.60;;;11.30;99.90;;;;;;5112360;28;20240;-81
2023/10/22 01:39:40;;;;;;;9.80;9.50;;;11.40;99.90;;;;;;5111903;28;20232;-81
2023/10/22 01:42:08;;;;;;;10.00;9.70;;;11.30;99.90;;;;;;5111503;28;20241;-80
2023/10/22 01:44:36;;;;;;;9.87;9.57;;;11.30;99.90;;;;;;5110610;28;20210;-80
2023/10/22 01:47:03;;;;;;;9.97;9.67;;;11.20;99.90;;;;;;5110730;28;20301;-80
2023/10/22 01:49:30;;;;;;;9.97;9.67;;;11.10;99.90;;;;;;5111573;28;20253;-80
2023/10/22 01:51:57;;;;;;;10.17;9.87;;;11.10;99.90;;;;;;5115431;28;20347;-80
2023/10/22 01:54:24;;;;;;;9.90;9.60;;;11.00;99.90;;;;;;5115741;28;20217;-82
2023/10/22 01:56:52;;;;;;;10.03;9.73;;;11.00;99.90;;;;;;5117308;28;20227;-81
2023/10/22 01:59:20;;;;;;;9.90;9.60;;;10.90;99.90;;;;;;5116057;28;20249;-80
2023/10/22 02:01:47;;;;;;;9.93;9.63;;;10.90;99.90;;;;;;5114866;28;20285;-80
2023/10/22 02:04:14;;;;;;;10.00;9.70;;;10.90;99.90;;;;;;5111256;28;20214;-81
2023/10/22 02:06:42;;;;;;;9.90;9.60;;;10.90;99.90;;;;;;5112869;28;20250;-80
2023/10/22 02:09:10;;;;;;;9.90;9.60;;;10.90;99.90;;;;;;5112157;28;20248;-80
2023/10/22 02:11:37;;;;;;;9.90;9.60;;;10.80;99.90;;;;;;5111053;28;20229;-80
2023/10/22 02:14:04;;;;;;;9.63;9.33;;;10.80;99.90;;;;;;5111253;28;20304;-81
2023/10/22 02:16:33;;;;;;;9.90;9.60;;;10.80;99.90;;;;;;5110783;28;20279;-81
2023/10/22 02:19:00;;;;;;;10.00;9.70;;;10.80;99.90;;;;;;5110658;28;20322;-81
2023/10/22 02:21:27;;;;;;;10.00;9.70;;;10.70;99.90;;;;;;5111618;28;20224;-81
2023/10/22 02:23:55;;;;;;;9.90;9.60;;;10.70;99.90;;;;;;5110428;28;20321;-80
2023/10/22 02:26:23;;;;;;;9.90;9.60;;;10.60;99.90;;;;;;5110502;28;20263;-81
2023/10/22 02:28:50;;;;;;;10.00;9.70;;;10.50;99.90;;;;;;5111141;28;21022;-80
2023/10/22 02:31:17;;;;;;;10.20;9.90;;;10.50;99.90;;;;;;5117492;28;20343;-81
2023/10/22 02:33:45;;;;;;;10.17;9.87;;;10.40;99.90;;;;;;5122062;28;20236;-80
2023/10/22 02:36:13;;;;;;;10.30;10.00;;;10.30;99.90;;;;;;5132198;28;20225;-80
2023/10/22 02:38:40;;;;;;;10.17;9.87;;;10.30;99.90;;;;;;5124391;28;20923;-80
2023/10/22 02:41:07;;;;;;;10.23;9.93;;;10.30;99.90;;;;;;5131789;28;20301;-81
2023/10/22 02:43:35;;;;;;;10.10;9.80;;;10.20;99.90;;;;;;5129224;28;20232;-80
2023/10/22 02:46:02;;;;;;;9.93;9.63;;;10.20;99.90;;;;;;5122577;28;20310;-81
2023/10/22 02:48:29;;;;;;;10.07;9.77;;;10.20;99.90;;;;;;5130107;28;20958;-81
2023/10/22 02:50:57;;;;;;;10.30;10.00;;;10.20;99.90;;;;;;5130540;28;20232;-80
2023/10/22 02:53:24;;;;;;;10.13;9.83;;;10.20;99.90;;;;;;5130339;28;20209;-81
2023/10/22 02:56:00;;;;;;;10.00;9.70;;;10.10;99.90;;;;;;5130087;28;20248;-81
2023/10/22 02:58:29;;;;;;;10.07;9.77;;;10.10;99.90;;;;;;5129812;28;20236;-81
2023/10/22 03:00:56;;;;;;;10.03;9.73;;;10.10;99.90;;;;;;5130065;28;20290;-80
2023/10/22 03:03:23;;;;;;;10.00;9.70;;;10.00;99.90;;;;;;5131404;28;21045;-80
2023/10/22 03:05:50;;;;;;;10.30;10.00;;;10.00;99.90;;;;;;5130305;28;20259;-80
2023/10/22 03:08:19;;;;;;;10.50;10.20;;;10.00;99.90;;;;;;5130669;28;20278;-80
2023/10/22 03:10:46;;;;;;;9.97;9.67;;;10.00;99.90;;;;;;5130427;28;20247;-80
2023/10/22 03:13:15;;;;;;;10.00;9.70;;;10.00;99.90;;;;;;5130063;28;20243;-81
2023/10/22 03:15:42;;;;;;;10.20;9.90;;;9.90;99.90;;;;;;5130605;28;20286;-81
2023/10/22 03:18:09;;;;;;;10.00;9.70;;;9.90;99.90;;;;;;5130659;28;20248;-80
2023/10/22 03:20:36;;;;;;;10.13;9.83;;;9.90;99.90;;;;;;5129094;28;20224;-80
2023/10/22 03:23:05;;;;;;;10.20;9.90;;;9.90;99.90;;;;;;5130859;28;20240;-80
2023/10/22 03:25:34;;;;;;;10.03;9.73;;;9.90;99.90;;;;;;5129593;28;20236;-81
2023/10/22 03:28:01;;;;;;;9.90;9.60;;;9.90;99.90;;;;;;5130334;28;20255;-80
2023/10/22 03:30:29;;;;;;;10.07;9.77;;;9.80;99.90;;;;;;5129338;28;20236;-80
2023/10/22 03:32:56;;;;;;;9.97;9.67;;;9.80;99.90;;;;;;5130834;28;20228;-80
2023/10/22 03:35:23;;;;;;;10.00;9.70;;;9.80;99.90;;;;;;5131913;28;20233;-81
2023/10/22 03:37:50;;;;;;;10.00;9.70;;;9.80;99.90;;;;;;5130048;28;20320;-80
2023/10/22 03:40:19;;;;;;;10.10;9.80;;;9.80;99.90;;;;;;5128957;28;20225;-79
2023/10/22 03:42:48;;;;;;;10.00;9.70;;;9.80;99.90;;;;;;5129487;28;20251;-80
2023/10/22 03:45:15;;;;;;;10.10;9.80;;;9.70;99.90;;;;;;5129992;28;20293;-80
2023/10/22 03:47:42;;;;;;;10.10;9.80;;;9.70;99.90;;;;;;5129756;28;20260;-82
2023/10/22 03:50:10;;;;;;;10.10;9.80;;;9.70;99.90;;;;;;5129442;28;20331;-80
2023/10/22 03:52:37;;;;;;;10.00;9.70;;;9.70;99.90;;;;;;5130094;28;20224;-82
2023/10/22 03:55:06;;;;;;;10.10;9.80;;;9.70;99.90;;;;;;5094558;28;20238;-81
2023/10/22 03:57:33;;;;;;;9.90;9.60;;;9.70;99.90;;;;;;5089152;28;20238;-81
2023/10/22 04:00:03;;;;;;;9.97;9.67;;;9.70;99.90;;;;;;5088070;28;20226;-81
2023/10/22 04:02:30;;;;;;;9.90;9.60;;;9.70;99.90;;;;;;5088351;28;20218;-80
2023/10/22 04:04:57;;;;;;;10.10;9.80;;;9.70;99.90;;;;;;5088016;28;20325;-80
2023/10/22 04:07:25;;;;;;;9.90;9.60;;;9.70;99.90;;;;;;5088882;28;20305;-81
2023/10/22 04:09:52;;;;;;;10.00;9.70;;;9.70;99.90;;;;;;5103992;28;20288;-81
2023/10/22 04:12:19;;;;;;;9.93;9.63;;;9.70;99.90;;;;;;5116595;28;20235;-80
2023/10/22 04:14:46;;;;;;;9.90;9.60;;;9.70;99.90;;;;;;5121420;28;20229;-80
2023/10/22 04:17:15;;;;;;;10.13;9.83;;;9.80;99.90;;;;;;5129119;28;20241;-81
2023/10/22 04:19:42;;;;;;;10.00;9.70;;;9.70;99.90;;;;;;5129861;28;20259;-80
2023/10/22 04:22:09;;;;;;;10.00;9.70;;;9.70;99.90;;;;;;5121428;28;20220;-80
2023/10/22 04:24:36;;;;;;;9.90;9.60;;;9.70;99.90;;;;;;5088945;28;20256;-80
2023/10/22 04:27:04;;;;;;;9.83;9.53;;;9.70;99.90;;;;;;5087762;28;20276;-81
2023/10/22 04:29:32;;;;;;;10.10;9.80;;;9.70;99.90;;;;;;5089088;28;20222;-81
2023/10/22 04:31:59;;;;;;;10.10;9.80;;;9.70;99.90;;;;;;5088685;28;20234;-80
2023/10/22 04:34:28;;;;;;;9.93;9.63;;;9.70;99.90;;;;;;5087993;28;20241;-80
2023/10/22 04:36:56;;;;;;;10.03;9.73;;;9.60;99.90;;;;;;5088788;28;20234;-80
2023/10/22 04:39:24;;;;;;;10.00;9.70;;;9.60;99.90;;;;;;5087584;28;20269;-80
2023/10/22 04:41:51;;;;;;;10.10;9.80;;;9.50;99.90;;;;;;5087976;28;20230;-80
2023/10/22 04:44:19;;;;;;;9.90;9.60;;;9.50;99.90;;;;;;5087904;28;20253;-81
2023/10/22 04:46:46;;;;;;;10.07;9.77;;;9.40;99.90;;;;;;5087597;28;20253;-80
2023/10/22 04:49:13;;;;;;;10.03;9.73;;;9.40;99.90;;;;;;5086589;28;20265;-80
2023/10/22 04:51:41;;;;;;;10.10;9.80;;;9.40;99.90;;;;;;5091204;28;20249;-80
2023/10/22 04:54:09;;;;;;;10.27;9.97;;;9.40;99.90;;;;;;5091751;28;20316;-80
2023/10/22 04:56:36;;;;;;;10.20;9.90;;;9.40;99.90;;;;;;5091392;28;20233;-80
2023/10/22 04:59:04;;;;;;;10.10;9.80;;;9.40;99.90;;;;;;5091248;28;20230;-81
2023/10/22 05:01:31;;;;;;;10.33;10.03;;;9.30;99.90;;;;;;5090637;28;20222;-80
2023/10/22 05:03:58;;;;;;;10.30;10.00;;;9.30;99.90;;;;;;5091577;28;20256;-81
2023/10/22 05:06:25;;;;;;;10.10;9.80;;;9.30;99.90;;;;;;5090760;28;20226;-80
2023/10/22 05:08:54;;;;;;;10.07;9.77;;;9.30;99.90;;;;;;5090661;28;20245;-80
2023/10/22 05:11:21;;;;;;;9.93;9.63;;;9.30;99.90;;;;;;5091587;28;20230;-80
2023/10/22 05:13:48;;;;;;;9.90;9.60;;;9.30;99.90;;;;;;5090605;28;20262;-81
2023/10/22 05:16:15;;;;;;;10.10;9.80;;;9.30;99.90;;;;;;5090970;28;20255;-82
2023/10/22 05:18:43;;;;;;;10.00;9.70;;;9.30;99.90;;;;;;5090705;28;20226;-83
2023/10/22 05:21:11;;;;;;;10.30;10.00;;;9.30;99.90;;;;;;5091223;28;20381;-80
2023/10/22 05:23:38;;;;;;;10.13;9.83;;;9.40;99.90;;;;;;5091187;28;20252;-81
2023/10/22 05:26:09;;;;;;;10.20;9.90;;;9.50;99.90;;;;;;5091193;28;20253;-83
2023/10/22 05:28:37;;;;;;;9.97;9.67;;;9.50;99.90;;;;;;5089654;28;20234;-82
2023/10/22 05:31:14;;;;;;;9.90;9.60;;;9.50;99.90;;;;;;5090261;28;20242;-81
2023/10/22 05:33:41;;;;;;;10.10;9.80;;;9.50;99.90;;;;;;5090394;28;20264;-80
2023/10/22 05:36:16;;;;;;;10.00;9.70;;;9.50;99.90;;;;;;5091030;28;20290;-81
2023/10/22 05:41:25;;;;;;;10.10;9.80;;;9.40;99.90;;;;;;5117174;28;20225;-81
2023/10/22 05:43:56;;;;;;;10.10;9.80;;;9.40;99.90;;;;;;5123346;28;20256;-81
2023/10/22 05:46:23;;;;;;;10.10;9.80;;;9.40;99.90;;;;;;5112149;28;20289;-83
2023/10/22 05:49:03;;;;;;;10.40;10.10;;;9.40;99.90;;;;;;5110216;28;20221;-82
2023/10/22 05:51:33;;;;;;;10.10;9.80;;;9.30;99.90;;;;;;5109543;28;20240;-81
2023/10/22 05:56:42;;;;;;;10.13;9.83;;;9.30;99.90;;;;;;5121830;28;20292;-83
2023/10/22 05:59:10;;;;;;;10.20;9.90;;;9.40;99.90;;;;;;5128581;28;20241;-82
2023/10/22 06:01:41;;;;;;;10.00;9.70;;;9.30;99.90;;;;;;5115939;27;20222;-83
2023/10/22 06:04:08;;;;;;;10.07;9.77;;;9.30;99.90;;;;;;5117075;28;20240;-81
2023/10/22 06:06:47;;;;;;;10.00;9.70;;;9.30;99.90;;;;;;5129237;28;20292;-83
2023/10/22 06:09:26;;;;;;;10.30;10.00;;;9.20;99.90;;;;;;5128089;28;20297;-82
2023/10/22 06:11:57;;;;;;;10.00;9.70;;;9.20;99.90;;;;;;5128173;28;20221;-82
2023/10/22 06:14:24;;;;;;;9.93;9.63;;;9.10;99.90;;;;;;5128328;28;20252;-82
2023/10/22 06:17:04;;;;;;;10.00;9.70;;;9.10;99.90;;;;;;5129298;28;20267;-81
2023/10/22 06:19:34;;;;;;;10.10;9.80;;;9.10;99.90;;;;;;5130783;27;20307;-87
2023/10/22 06:22:01;;;;;;;9.90;9.60;;;9.10;99.90;;;;;;5131274;28;20279;-85
2023/10/22 06:24:34;;;;;;;10.10;9.80;;;9.10;99.90;;;;;;5138417;28;20311;-82
2023/10/22 06:27:11;;;;;;;9.80;9.50;;;9.10;99.90;;;;;;5139539;28;20302;-83
2023/10/22 06:29:38;;;;;;;10.10;9.80;;;9.20;99.90;;;;;;5136733;27;20243;-84
2023/10/22 06:32:07;;;;;;;9.73;9.43;;;9.20;99.90;;;;;;5129385;27;20213;-85
2023/10/22 06:34:46;;;;;;;9.87;9.57;;;9.20;99.90;;;;;;5127411;28;20261;-85
2023/10/22 06:37:15;;;;;;;9.90;9.60;;;9.20;99.90;;;;;;5126958;28;20228;-86
2023/10/22 06:39:55;;;;;;;10.00;9.70;;;9.10;99.90;;;;;;5126427;28;20247;-86
2023/10/22 06:42:26;;;;;;;9.90;9.60;;;9.10;99.90;;;;;;5127256;28;20224;-86
2023/10/22 06:44:53;;;;;;;9.70;9.40;;;9.10;99.90;;;;;;5127548;28;20279;-83
2023/10/22 06:47:23;;;;;;;9.60;9.30;;;9.10;99.90;;;;;;5129233;28;20229;-85
2023/10/22 06:49:51;;;;;;;9.30;9.00;;;9.20;99.90;;;;;;5129594;28;20229;-84
2023/10/22 06:52:30;;;;;;;9.00;8.70;;;9.20;99.90;;;;;;5129770;28;20252;-84
2023/10/22 06:55:09;;;;;;;9.20;8.90;;;9.20;99.90;;;;;;5128908;28;20292;-85
2023/10/22 06:57:40;;;;;;;9.30;9.00;;;9.30;99.90;;;;;;5129422;28;20237;-84
2023/10/22 07:00:10;;;;;;;9.20;8.90;;;9.30;99.90;;;;;;5128229;28;20287;-85
2023/10/22 07:02:37;;;;;;;9.60;9.30;;;9.50;99.90;;;;;;5129194;28;20227;-84
2023/10/22 07:05:10;;;;;;;9.10;8.80;;;9.50;99.90;;;;;;5129453;28;20229;-84
2023/10/22 07:07:41;;;;;;;9.30;9.00;;;9.50;99.90;;;;;;5130348;28;20238;-83
2023/10/22 07:12:54;;;;;;;9.40;9.10;;;9.60;99.90;;;;;;5133781;28;20216;-83
2023/10/22 07:15:24;;;;;;;9.20;8.90;;;9.60;99.90;;;;;;5131255;28;20258;-83
2023/10/22 07:17:52;;;;;;;9.50;9.20;;;9.70;99.90;;;;;;5133357;28;20228;-84
2023/10/22 07:20:21;;;;;;;9.07;8.77;;;9.70;99.90;;;;;;5133178;28;20236;-84
2023/10/22 07:22:49;;;;;;;9.37;9.07;;;9.80;99.90;;;;;;5127914;28;20217;-85
2023/10/22 07:25:29;;;;;;;9.50;9.20;;;9.80;99.90;;;;;;5125845;28;20317;-86
2023/10/22 07:27:59;;;;;;;9.47;9.17;;;9.90;99.90;;;;;;5118709;28;20225;-86
2023/10/22 07:30:27;;;;;;;9.37;9.07;;;10.10;99.90;;;;;;5117147;28;20256;-84
2023/10/22 07:32:56;;;;;;;9.50;9.20;;;10.20;99.90;;;;;;5116358;28;20217;-84
2023/10/22 07:35:35;;;;;;;9.40;9.10;;;10.30;99.90;;;;;;5110309;27;20205;-84
2023/10/22 07:38:12;;;;;;;9.60;9.30;;;10.50;99.90;;;;;;5110487;28;20267;-84
2023/10/22 07:40:55;;;;;;;9.27;8.97;;;10.70;99.90;;;;;;5108334;28;20251;-87
2023/10/22 07:46:07;;;;;;;9.40;9.10;;;10.90;99.90;;;;;;5105101;28;20217;-87
2023/10/22 07:51:18;;;;;;;9.63;9.33;;;11.10;99.90;;;;;;5142370;22;20221;-86
2023/10/22 07:53:47;;;;;;;9.73;9.43;;;11.30;99.90;;;;;;5130594;27;20225;-85
2023/10/22 07:56:18;;;;;;;9.80;9.50;;;11.40;99.90;;;;;;5132974;27;20219;-84
2023/10/22 07:58:47;;;;;;;9.97;9.67;;;11.50;99.90;;;;;;5140340;27;20233;-85
2023/10/22 08:01:15;;;;;;;9.90;9.60;;;11.60;99.90;;;;;;5140328;27;20231;-84
2023/10/22 08:03:53;;;;;;;10.17;9.87;;;11.70;99.90;;;;;;5140610;27;20221;-83
2023/10/22 08:06:22;;;;;;;10.00;9.70;;;11.80;99.90;;;;;;5140430;27;20197;-82
2023/10/22 08:09:00;;;;;;;10.20;9.90;;;11.90;99.90;;;;;;5135581;27;20221;-83
2023/10/22 08:11:29;;;;;;;10.10;9.80;;;12.10;99.90;;;;;;5128849;28;20239;-85
2023/10/22 08:14:02;;;;;;;10.10;9.80;;;12.10;99.90;;;;;;5129851;27;20213;-84
2023/10/22 08:16:31;;;;;;;10.10;9.80;;;12.20;99.90;;;;;;5131476;28;20289;-81
2023/10/22 08:18:58;;;;;;;10.13;9.83;;;12.30;99.90;;;;;;5139927;27;20205;-83
2023/10/22 08:21:37;;;;;;;10.47;10.17;;;12.40;99.90;;;;;;5131455;27;20232;-84
2023/10/22 08:24:06;;;;;;;10.23;9.93;;;12.50;99.90;;;;;;5126996;28;20221;-84
2023/10/22 08:26:34;;;;;;;10.40;10.10;;;12.70;99.90;;;;;;5135093;27;20239;-84
2023/10/22 08:29:08;;;;;;;10.37;10.07;;;12.70;99.90;;;;;;5129570;28;20332;-86
2023/10/22 08:31:35;;;;;;;10.17;9.87;;;12.90;99.90;;;;;;5128435;28;20224;-85
2023/10/22 08:34:04;;;;;;;10.20;9.90;;;13.00;99.90;;;;;;5128112;27;20229;-85
2023/10/22 08:36:34;;;;;;;10.37;10.07;;;13.20;99.90;;;;;;5127729;28;20243;-85
2023/10/22 08:39:02;;;;;;;10.40;10.10;;;13.30;99.90;;;;;;5128528;28;20236;-85
2023/10/22 08:44:30;;;;;;;10.20;9.90;;;13.70;99.90;;;;;;5086935;28;20214;-84
2023/10/22 08:46:57;;;;;;;10.40;10.10;;;14.00;99.90;;;;;;5086219;28;20320;-85
2023/10/22 08:49:27;;;;;;;10.20;9.90;;;14.10;99.90;;;;;;5086315;28;20329;-84
2023/10/22 08:51:56;;;;;;;10.03;9.73;;;14.20;99.90;;;;;;5086770;28;20223;-86
2023/10/22 08:54:28;;;;;;;10.10;9.80;;;14.10;99.90;;;;;;5090290;28;20294;-85
2023/10/22 08:56:55;;;;;;;10.30;10.00;;;14.30;99.90;;;;;;5086633;28;20234;-84
2023/10/22 08:59:24;;;;;;;10.30;10.00;;;14.50;99.90;;;;;;5086061;28;20262;-85
2023/10/22 09:04:40;;;;;;;9.90;9.60;;;14.80;99.90;;;;;;5087833;28;20226;-83
2023/10/22 09:07:21;;;;;;;10.03;9.73;;;15.00;99.90;;;;;;5088067;28;20226;-84
2023/10/22 09:09:48;;;;;;;10.00;9.70;;;15.10;99.90;;;;;;5087765;28;20320;-84
2023/10/22 09:12:37;;;;;;;10.00;9.70;;;15.00;99.90;;;;;;5095225;28;20230;-85
2023/10/22 09:15:05;;;;;;;10.10;9.80;;;15.10;99.90;;;;;;5096083;28;20290;-87
2023/10/22 09:20:24;;;;;;;9.97;9.67;;;15.10;99.90;;;;;;5088037;28;20222;-86
2023/10/22 09:22:51;;;;;;;9.80;9.50;;;15.10;99.90;;;;;;5089136;28;20230;-84
2023/10/22 09:25:30;;;;;;;9.75;9.45;;;15.10;99.90;;;;;;5088471;28;20305;-86
2023/10/22 09:27:58;;;;;;;9.70;9.40;;;15.10;99.90;;;;;;5088729;28;20261;-82
2023/10/22 09:30:30;;;;;;;9.68;9.38;;;15.20;99.90;;;;;;5088205;28;20234;-84
2023/10/22 09:33:00;;;;;;;9.60;9.30;;;15.30;99.90;;;;;;5088489;28;20229;-85
2023/10/22 09:35:27;;;;;;;9.70;9.40;;;15.40;99.90;;;;;;5120258;28;20231;-84
2023/10/22 09:37:58;;;;;;;9.70;9.40;;;15.60;99.90;;;;;;5126194;27;20278;-84
2023/10/22 09:40:26;;;;;;;9.90;9.60;;;15.70;99.90;;;;;;5129731;28;20236;-83
2023/10/22 09:42:55;;;;;;;9.82;9.52;;;15.70;99.90;;;;;;5129421;28;20228;-82
2023/10/22 09:45:25;;;;;;;9.90;9.60;;;16.00;99.90;;;;;;5128973;28;20229;-84
2023/10/22 09:53:31;;;;;;;9.70;9.40;;;16.20;99.90;;;;;;5129352;28;20220;-83
2023/10/22 09:56:01;;;;;;;9.77;9.48;;;16.20;99.90;;;;;;5129546;28;20225;-84
2023/10/22 09:58:30;;;;;;;9.60;9.30;;;16.10;99.90;;;;;;5134420;28;20208;-80
2023/10/22 10:00:59;;;;;;;9.50;9.20;;;16.00;99.90;;;;;;5134079;28;20243;-83
2023/10/22 10:03:30;;;;;;;9.50;9.20;;;16.20;99.90;;;;;;5129912;28;20233;-83
2023/10/22 10:05:58;;;;;;;9.55;9.25;;;16.40;99.90;;;;;;5129739;28;20233;-83
2023/10/22 10:08:26;;;;;;;9.40;9.10;;;16.50;99.90;;;;;;5130595;28;20242;-84
2023/10/22 10:11:06;;;;;;;9.77;9.48;;;16.80;99.90;;;;;;5136994;28;20233;-84
2023/10/22 10:13:35;;;;;;;9.90;9.60;;;17.20;99.90;;;;;;5130881;28;20240;-84
2023/10/22 10:16:05;;;;;;;9.73;9.43;;;17.60;99.90;;;;;;5131311;28;20237;-83
2023/10/22 10:19:01;;;;;;;9.80;9.50;;;17.60;99.90;;;;;;5128962;28;20259;-84
2023/10/22 10:21:40;;;;;;;9.70;9.40;;;17.50;99.90;;;;;;5111396;27;20236;-81
2023/10/22 10:27:38;;;;;;;9.82;9.52;;;17.80;99.90;;;;;;5137915;27;20212;-83
2023/10/22 10:30:20;;;;;;;9.80;9.50;;;17.90;99.90;;;;;;5137888;28;20243;-84
2023/10/22 10:33:04;;;;;;;9.88;9.57;;;17.70;99.90;;;;;;5131465;28;20239;-85
2023/10/22 10:38:28;;;;;;;10.00;9.70;;;17.50;99.90;;;;;;5133115;27;20224;-84
2023/10/22 10:40:57;;;;;;;9.80;9.50;;;17.50;99.90;;;;;;5128936;28;20236;-85
2023/10/22 10:44:20;;;;;;;10.20;9.90;;;17.60;99.90;;;;;;5126393;28;20239;-84
2023/10/22 10:46:49;;;;;;;9.93;9.63;;;17.90;99.90;;;;;;5102548;27;20282;-86
2023/10/22 10:49:57;;;;;;;10.02;9.73;;;18.20;99.90;;;;;;5126486;27;20229;-85
2023/10/22 10:52:26;;;;;;;9.80;9.50;;;18.50;99.90;;;;;;5132091;28;20288;-84
2023/10/22 10:55:02;;;;;;;9.90;9.60;;;18.90;99.90;;;;;;5132544;28;20232;-84
2023/10/22 10:57:49;;;;;;;9.88;9.57;;;19.10;99.90;;;;;;5132527;28;20232;-83
2023/10/22 11:00:27;;;;;;;9.60;9.30;;;19.20;99.90;;;;;;5132020;28;20220;-82
2023/10/22 11:05:45;;;;;;;9.70;9.40;;;19.10;99.90;;;;;;5133805;28;20248;-85
2023/10/22 11:11:01;;;;;;;9.80;9.50;;;19.30;99.90;;;;;;5130889;28;20223;-83
2023/10/22 11:13:30;;;;;;;10.00;9.70;;;19.20;99.90;;;;;;5132691;28;20288;-85
2023/10/22 11:16:07;;;;;;;9.80;9.50;;;19.30;99.90;;;;;;5131880;27;20255;-85
2023/10/22 11:18:58;;;;;;;9.88;9.57;;;19.60;99.90;;;;;;5130333;28;20216;-84
2023/10/22 11:21:47;;;;;;;9.80;9.50;;;19.90;99.90;;;;;;5131135;27;20217;-85
2023/10/22 11:27:25;;;;;;;9.80;9.50;;;19.80;99.90;;;;;;5131119;28;20272;-85
2023/10/22 11:30:01;;;;;;;9.70;9.40;;;19.60;99.90;;;;;;5130480;27;20229;-86
2023/10/22 11:32:42;;;;;;;9.65;9.35;;;19.80;99.90;;;;;;5135943;27;20224;-85
2023/10/22 11:35:11;;;;;;;9.63;9.32;;;20.10;99.90;;;;;;5131551;28;20307;-85
2023/10/22 11:37:52;;;;;;;9.90;9.60;;;20.40;99.90;;;;;;5132440;28;20240;-84
2023/10/22 11:40:29;;;;;;;9.80;9.50;;;20.20;99.90;;;;;;5133063;22;20268;-83
2023/10/22 11:42:58;;;;;;;9.90;9.60;;;20.00;99.90;;;;;;5113316;28;20221;-83
2023/10/22 11:45:29;;;;;;;10.00;9.70;;;20.00;99.90;;;;;;5104410;28;20233;-83
2023/10/22 11:48:11;;;;;;;9.85;9.55;;;20.30;99.90;;;;;;5102589;28;20287;-81
2023/10/22 11:50:38;;;;;;;9.68;9.38;;;20.30;99.90;;;;;;5116852;28;20243;-80
2023/10/22 11:53:06;;;;;;;10.10;9.80;;;20.50;99.90;;;;;;5126030;28;21088;-83
2023/10/22 11:55:34;;;;;;;10.00;9.70;;;20.90;99.90;;;;;;5126332;28;20232;-81
2023/10/22 11:58:01;;;;;;;9.73;9.43;;;21.10;99.90;;;;;;5125050;28;20265;-82
2023/10/22 12:00:28;;;;;;;10.00;9.70;;;21.20;99.90;;;;;;5127455;27;20292;-82
2023/10/22 12:02:56;;;;;;;10.00;9.70;;;21.30;99.90;;;;;;5128688;28;20217;-84
2023/10/22 12:05:23;;;;;;;9.90;9.60;;;21.40;99.90;;;;;;5127767;28;20233;-82
2023/10/22 12:07:50;;;;;;;10.05;9.75;;;21.70;99.90;;;;;;5128930;28;20229;-81
2023/10/22 12:10:17;;;;;;;9.88;9.57;;;21.80;99.90;;;;;;5128846;28;20244;-81
2023/10/22 12:12:46;;;;;;;9.63;9.32;;;22.00;99.90;;;;;;5132926;27;20235;-80
2023/10/22 12:15:13;;;;;;;9.90;9.60;;;21.70;99.90;;;;;;5130533;28;20235;-83
2023/10/22 12:17:40;;;;;;;9.75;9.45;;;21.40;99.90;;;;;;5130018;28;20221;-82
2023/10/22 12:20:09;;;;;;;9.63;9.32;;;21.30;99.90;;;;;;5128888;28;20240;-81
2023/10/22 12:22:36;;;;;;;9.85;9.55;;;21.00;99.90;;;;;;5128075;28;20217;-82
2023/10/22 12:25:04;;;;;;;10.07;9.77;;;21.00;99.90;;;;;;5128856;28;20271;-82
2023/10/22 12:27:32;;;;;;;10.20;9.90;;;21.00;99.90;;;;;;5128991;28;20248;-83
2023/10/22 12:30:02;;;;;;;9.93;9.63;;;21.00;99.90;;;;;;5130622;28;20800;-82
2023/10/22 12:32:29;;;;;;;9.88;9.57;;;21.10;99.90;;;;;;5131997;28;20216;-81
2023/10/22 12:34:56;;;;;;;10.00;9.70;;;21.00;99.90;;;;;;5128992;28;20225;-81
2023/10/22 12:37:24;;;;;;;10.05;9.75;;;21.00;99.90;;;;;;5128541;28;20260;-82
2023/10/22 12:39:51;;;;;;;9.90;9.60;;;20.80;99.90;;;;;;5127992;28;20228;-81
2023/10/22 12:42:18;;;;;;;10.00;9.70;;;20.60;99.90;;;;;;5129181;28;20224;-80
2023/10/22 12:44:46;;;;;;;9.93;9.63;;;20.60;99.90;;;;;;5129765;28;20228;-80
2023/10/22 12:47:15;;;;;;;9.90;9.60;;;20.70;99.90;;;;;;5129779;28;20271;-80
2023/10/22 12:49:42;;;;;;;9.98;9.68;;;21.00;99.90;;;;;;5126882;28;20276;-81
2023/10/22 12:52:10;;;;;;;9.73;9.43;;;21.20;99.90;;;;;;5127771;28;20233;-80
2023/10/22 12:54:38;;;;;;;9.98;9.68;;;21.40;99.90;;;;;;5124526;28;20233;-79
2023/10/22 12:57:06;;;;;;;9.90;9.60;;;21.80;99.90;;;;;;5126607;28;20236;-81
2023/10/22 12:59:33;;;;;;;9.90;9.60;;;21.90;99.90;;;;;;5128370;28;20224;-80
2023/10/22 13:02:00;;;;;;;9.88;9.57;;;22.30;99.90;;;;;;5127887;28;20233;-81
2023/10/22 13:04:30;;;;;;;9.90;9.60;;;22.20;99.90;;;;;;5128109;28;20232;-81
2023/10/22 13:06:57;;;;;;;9.88;9.57;;;22.10;99.90;;;;;;5128242;28;20229;-80
2023/10/22 13:09:24;;;;;;;10.00;9.70;;;22.00;99.90;;;;;;5128053;28;20229;-82
2023/10/22 13:11:51;;;;;;;10.18;9.88;;;22.10;99.90;;;;;;5128264;27;20233;-81
2023/10/22 13:14:20;;;;;;;10.10;9.80;;;22.30;99.90;;;;;;5128264;28;20232;-81
2023/10/22 13:16:48;;;;;;;10.25;9.95;;;22.30;99.90;;;;;;5127481;28;20224;-80
2023/10/22 13:19:15;;;;;;;10.10;9.80;;;22.30;99.90;;;;;;5127055;28;20294;-81
2023/10/22 13:21:44;;;;;;;10.27;9.98;;;22.50;99.90;;;;;;5128001;28;20223;-81
2023/10/22 13:24:11;;;;;;;10.15;9.85;;;22.40;99.90;;;;;;5128148;28;20311;-82
2023/10/22 13:26:38;;;;;;;9.75;9.45;;;22.20;99.90;;;;;;5128115;28;20232;-80
2023/10/22 13:29:07;;;;;;;9.90;9.60;;;22.00;99.90;;;;;;5127350;28;20296;-81
2023/10/22 13:31:34;;;;;;;9.70;9.40;;;22.00;99.90;;;;;;5126829;28;20220;-81
2023/10/22 13:34:02;;;;;;;9.90;9.60;;;22.00;99.90;;;;;;5127028;28;20255;-80
2023/10/22 13:36:29;;;;;;;9.90;9.60;;;22.00;99.90;;;;;;5128278;28;20343;-80
2023/10/22 13:38:57;;;;;;;10.20;9.90;;;21.60;99.90;;;;;;5127504;28;20216;-81
2023/10/22 13:41:24;;;;;;;10.10;9.80;;;21.30;99.90;;;;;;5127343;28;20243;-81